Time;durP1;ratioP1;P1;durP2;ratioP2;P2;SDS_P1;SDS_P2;PMS_P1;PMS_P2;Temp;Humidity;BMP_temperature;BMP_pressure;BME280_temperature;BME280_humidity;BME280_pressure;Samples;Min_cycle;Max_cycle;Signal;HPM_P1;HPM_P2
2024/03/30 00:00:13;;;;;;;10.82;2.85;;;;;;;11.13;82.79;91324.66;2091317;28;20025;-80
2024/03/30 00:01:15;;;;;;;18.13;2.65;;;;;;;11.16;82.11;91323.75;2081493;28;20087;-79
2024/03/30 00:02:16;;;;;;;16.13;2.63;;;;;;;10.85;86.12;91330.31;2080905;28;20124;-80
2024/03/30 00:03:19;;;;;;;16.13;2.95;;;;;;;10.84;86.24;91328.81;2081203;28;20053;-79
2024/03/30 00:04:20;;;;;;;11.52;2.90;;;;;;;11.03;84.14;91321.38;2088757;28;20381;-79
2024/03/30 00:05:22;;;;;;;10.45;2.00;;;;;;;11.18;81.02;91327.44;2086169;28;20535;-79
2024/03/30 00:06:23;;;;;;;13.90;2.55;;;;;;;11.24;78.26;91324.84;2081442;28;20026;-80
2024/03/30 00:07:24;;;;;;;13.35;2.45;;;;;;;11.14;81.10;91323.47;2089498;28;20390;-80
2024/03/30 00:08:25;;;;;;;13.75;2.70;;;;;;;10.97;82.25;91331.94;2081276;28;20051;-79
2024/03/30 00:09:26;;;;;;;11.80;2.17;;;;;;;10.81;83.51;91335.09;2088962;28;20094;-80
2024/03/30 00:10:27;;;;;;;12.35;2.25;;;;;;;10.81;83.28;91335.84;2086983;28;20078;-80
2024/03/30 00:11:29;;;;;;;16.33;3.00;;;;;;;10.72;83.40;91335.94;2089419;28;20222;-80
2024/03/30 00:12:30;;;;;;;12.18;2.00;;;;;;;10.87;83.20;91337.88;2082276;28;20026;-79
2024/03/30 00:13:31;;;;;;;18.35;2.40;;;;;;;10.82;83.67;91339.25;2084076;28;20033;-80
2024/03/30 00:14:32;;;;;;;16.75;2.28;;;;;;;10.64;84.84;91342.81;2085256;28;20028;-80
2024/03/30 00:15:33;;;;;;;10.68;2.30;;;;;;;10.70;85.36;91342.91;2080145;28;20442;-79
2024/03/30 00:16:35;;;;;;;12.18;1.98;;;;;;;10.82;85.66;91339.97;2087298;28;20028;-79
2024/03/30 00:17:36;;;;;;;12.15;1.98;;;;;;;10.89;84.98;91338.88;2080257;28;20430;-79
2024/03/30 00:18:37;;;;;;;16.05;2.30;;;;;;;10.95;85.47;91344.31;2079909;28;20068;-78
2024/03/30 00:19:39;;;;;;;9.82;2.53;;;;;;;10.80;86.68;91345.06;2072379;28;20676;-80
2024/03/30 00:20:40;;;;;;;14.90;2.85;;;;;;;10.75;88.49;91351.03;2080359;28;20025;-78
2024/03/30 00:21:41;;;;;;;13.98;2.60;;;;;;;10.76;85.49;91341.81;2069557;28;20054;-80
2024/03/30 00:22:42;;;;;;;15.68;2.30;;;;;;;10.86;88.53;91339.81;2076589;28;20496;-79
2024/03/30 00:23:43;;;;;;;17.42;2.50;;;;;;;10.87;87.48;91343.94;2089362;28;20485;-79
2024/03/30 00:24:45;;;;;;;14.02;2.10;;;;;;;10.86;86.47;91350.50;2091697;28;20031;-81
2024/03/30 00:25:54;;;;;;;14.02;2.38;;;;;;;10.92;85.70;91345.97;2081114;28;20026;-79
2024/03/30 00:26:55;;;;;;;17.33;2.75;;;;;;;10.79;86.62;91353.50;2082269;28;20354;-80
2024/03/30 00:27:57;;;;;;;14.23;1.85;;;;;;;10.78;87.09;91352.78;2088920;28;20040;-80
2024/03/30 00:28:58;;;;;;;14.63;2.53;;;;;;;10.76;87.81;91355.19;2091712;28;20103;-79
2024/03/30 00:29:59;;;;;;;18.25;3.03;;;;;;;10.64;90.36;91363.47;2095568;28;20370;-81
2024/03/30 00:31:00;;;;;;;14.07;2.42;;;;;;;10.70;89.43;91348.25;2095220;28;20135;-80
2024/03/30 00:32:01;;;;;;;15.38;3.00;;;;;;;10.76;88.72;91349.09;2102017;28;20024;-80
2024/03/30 00:33:03;;;;;;;11.18;2.53;;;;;;;10.73;88.71;91350.03;2082645;28;20076;-78
2024/03/30 00:34:04;;;;;;;11.77;2.63;;;;;;;10.63;89.47;91346.69;2078830;28;20022;-81
2024/03/30 00:35:06;;;;;;;14.70;2.28;;;;;;;10.49;90.23;91347.41;2081647;28;20091;-80
2024/03/30 00:36:07;;;;;;;14.35;2.47;;;;;;;10.57;90.94;91349.25;2088618;28;20028;-80
2024/03/30 00:37:08;;;;;;;16.48;2.40;;;;;;;10.36;91.60;91349.56;2089194;28;20020;-79
2024/03/30 00:38:09;;;;;;;12.88;2.30;;;;;;;10.40;92.34;91342.88;2072495;28;20033;-81
2024/03/30 00:39:13;;;;;;;11.10;2.60;;;;;;;10.32;93.34;91344.44;2072882;28;20478;-81
2024/03/30 00:40:14;;;;;;;11.25;2.15;;;;;;;10.29;93.23;91342.66;2081492;28;20087;-81
2024/03/30 00:41:15;;;;;;;13.32;2.88;;;;;;;10.54;90.01;91344.09;2080659;28;20029;-79
2024/03/30 00:42:18;;;;;;;16.40;2.22;;;;;;;10.58;89.43;91340.06;2081588;28;20032;-79
2024/03/30 00:43:20;;;;;;;12.60;2.55;;;;;;;10.43;88.29;91341.94;2072842;28;20048;-79
2024/03/30 00:44:21;;;;;;;20.02;2.28;;;;;;;10.40;91.71;91337.53;2087105;28;20056;-80
2024/03/30 00:45:22;;;;;;;12.30;2.58;;;;;;;10.36;93.30;91349.56;2082173;28;20048;-80
2024/03/30 00:46:23;;;;;;;11.02;1.92;;;;;;;10.24;97.74;91345.94;2078244;28;20365;-79
2024/03/30 00:47:24;;;;;;;13.18;2.05;;;;;;;10.30;95.16;91354.81;2089183;28;20025;-80
2024/03/30 00:48:26;;;;;;;10.82;1.92;;;;;;;10.42;94.18;91342.41;2086835;28;20020;-80
2024/03/30 00:49:27;;;;;;;13.07;2.80;;;;;;;10.20;96.68;91348.78;2081047;28;20055;-81
2024/03/30 00:50:28;;;;;;;13.30;1.98;;;;;;;10.25;96.23;91342.84;2081279;28;20033;-80
2024/03/30 00:51:29;;;;;;;9.35;2.25;;;;;;;10.13;96.09;91343.03;2088831;28;20028;-80
2024/03/30 00:52:30;;;;;;;11.98;1.90;;;;;;;10.27;94.51;91345.81;2080809;28;20084;-80
2024/03/30 00:53:32;;;;;;;12.32;2.30;;;;;;;10.12;95.14;91342.31;2071498;28;20430;-80
2024/03/30 00:54:33;;;;;;;10.15;2.28;;;;;;;10.06;96.11;91336.88;2078176;28;20041;-81
2024/03/30 00:55:34;;;;;;;10.23;2.70;;;;;;;10.18;95.00;91332.47;2088075;28;20031;-80
2024/03/30 00:56:35;;;;;;;8.38;2.40;;;;;;;9.83;99.09;91334.94;2087894;28;20112;-80
2024/03/30 00:57:45;;;;;;;9.88;2.20;;;;;;;9.85;99.86;91343.22;2088626;28;20017;-81
2024/03/30 00:58:46;;;;;;;11.07;1.73;;;;;;;9.84;99.78;91334.50;2090128;28;20499;-80
2024/03/30 00:59:48;;;;;;;11.20;2.33;;;;;;;9.89;99.08;91337.72;2095018;28;20035;-81
2024/03/30 01:00:49;;;;;;;10.00;2.28;;;;;;;9.91;98.38;91336.06;2090314;28;20067;-80
2024/03/30 01:01:51;;;;;;;15.02;2.92;;;;;;;10.00;97.89;91335.28;2088991;28;20123;-80
2024/03/30 01:02:53;;;;;;;11.20;2.55;;;;;;;9.79;98.97;91327.13;2090526;28;20032;-80
2024/03/30 01:03:54;;;;;;;13.98;2.58;;;;;;;9.82;97.95;91326.19;2072843;28;20026;-79
2024/03/30 01:04:55;;;;;;;13.70;2.83;;;;;;;10.03;96.75;91321.75;2081961;28;20018;-81
2024/03/30 01:05:56;;;;;;;19.90;2.95;;;;;;;10.12;95.94;91314.88;2087556;28;20447;-80
2024/03/30 01:06:58;;;;;;;12.43;2.53;;;;;;;10.24;94.74;91312.00;2089239;28;20061;-80
2024/03/30 01:07:59;;;;;;;14.02;2.30;;;;;;;9.92;95.80;91312.78;2096671;28;20064;-81
2024/03/30 01:09:01;;;;;;;13.30;2.20;;;;;;;9.94;95.80;91316.47;2088936;28;20033;-81
2024/03/30 01:10:04;;;;;;;11.52;2.42;;;;;;;10.09;95.01;91317.25;2080306;28;20075;-80
2024/03/30 01:11:05;;;;;;;7.07;2.00;;;;;;;9.75;97.11;91312.47;2074401;28;20032;-80
2024/03/30 01:12:07;;;;;;;12.82;2.17;;;;;;;9.93;96.47;91312.34;2072394;28;20018;-80
2024/03/30 01:13:08;;;;;;;13.52;2.50;;;;;;;9.99;96.73;91309.78;2084973;28;20087;-80
2024/03/30 01:14:10;;;;;;;12.70;2.10;;;;;;;9.66;97.75;91309.81;2090134;28;20029;-81
2024/03/30 01:15:11;;;;;;;13.23;2.40;;;;;;;9.78;98.57;91308.88;2085492;28;20048;-80
2024/03/30 01:16:13;;;;;;;8.98;1.75;;;;;;;9.81;98.81;91313.31;2080846;28;20024;-83
2024/03/30 01:17:14;;;;;;;8.63;1.90;;;;;;;9.63;99.44;91313.41;2094287;28;20101;-81
2024/03/30 01:18:16;;;;;;;10.77;2.28;;;;;;;9.67;100.00;91309.41;2095603;28;20513;-81
2024/03/30 01:19:17;;;;;;;10.77;3.28;;;;;;;9.66;100.00;91296.50;2086549;28;20034;-80
2024/03/30 01:20:27;;;;;;;12.20;2.10;;;;;;;9.74;99.82;91293.03;2096649;28;20511;-82
2024/03/30 01:21:28;;;;;;;13.40;2.50;;;;;;;9.72;97.89;91294.69;2088306;28;20103;-80
2024/03/30 01:22:29;;;;;;;15.05;2.65;;;;;;;9.61;100.00;91297.13;2093035;28;20485;-80
2024/03/30 01:23:31;;;;;;;11.57;2.17;;;;;;;9.54;99.42;91296.28;2086589;28;20055;-82
2024/03/30 01:24:32;;;;;;;12.27;2.30;;;;;;;9.55;100.00;91289.75;2088857;28;20025;-80
2024/03/30 01:25:33;;;;;;;14.43;1.80;;;;;;;9.75;98.34;91291.84;2096004;28;20025;-81
2024/03/30 01:26:43;;;;;;;9.70;2.50;;;;;;;9.61;97.08;91294.44;2088606;28;20032;-80
2024/03/30 01:27:44;;;;;;;;;;;;;;;9.77;96.33;91288.72;2082374;28;20109;-81
2024/03/30 01:28:46;;;;;;;11.10;2.10;;;;;;;9.83;93.16;91290.31;2079493;28;19924;-82
2024/03/30 01:29:47;;;;;;;11.02;2.13;;;;;;;10.07;91.84;91297.56;2087807;28;20041;-81
2024/03/30 01:30:49;;;;;;;10.90;1.63;;;;;;;10.05;91.91;91297.25;2095300;28;20434;-79
2024/03/30 01:31:52;;;;;;;9.90;1.98;;;;;;;10.07;88.15;91294.91;2088832;28;20033;-80
2024/03/30 01:32:53;;;;;;;17.42;2.58;;;;;;;10.27;89.56;91292.41;2080736;28;20048;-81
2024/03/30 01:33:54;;;;;;;8.43;1.65;;;;;;;10.28;86.25;91287.78;2088178;28;20028;-81
2024/03/30 01:34:56;;;;;;;11.70;2.78;;;;;;;10.50;86.15;91300.81;2093543;28;20043;-82
2024/03/30 01:35:57;;;;;;;12.80;2.28;;;;;;;10.62;86.29;91293.69;2086372;28;20017;-80
2024/03/30 01:36:58;;;;;;;7.50;1.73;;;;;;;10.57;83.69;91295.81;2080448;28;20027;-81
2024/03/30 01:38:00;;;;;;;15.23;2.58;;;;;;;10.73;82.00;91293.91;2080783;28;20371;-80
2024/03/30 01:39:01;;;;;;;8.32;2.45;;;;;;;10.56;84.23;91298.97;2088299;28;20037;-81
2024/03/30 01:40:02;;;;;;;8.75;1.95;;;;;;;10.77;81.71;91302.47;2096832;28;20017;-80
2024/03/30 01:41:04;;;;;;;10.20;2.33;;;;;;;10.76;81.52;91301.75;2100763;28;20035;-79
2024/03/30 01:42:05;;;;;;;8.40;1.50;;;;;;;10.72;82.16;91289.75;2089132;28;20593;-80
2024/03/30 01:43:06;;;;;;;12.63;2.63;;;;;;;10.83;81.04;91295.28;2079916;28;20041;-79
2024/03/30 01:44:07;;;;;;;9.07;2.38;;;;;;;10.70;83.05;91292.16;2088107;28;20772;-79
2024/03/30 01:45:08;;;;;;;10.75;2.42;;;;;;;10.76;80.24;91298.34;2089460;28;20025;-79
2024/03/30 01:46:10;;;;;;;8.18;1.90;;;;;;;10.70;81.52;91284.13;2080368;28;20422;-80
2024/03/30 01:47:11;;;;;;;12.93;2.88;;;;;;;10.77;79.19;91297.88;2080379;28;20029;-82
2024/03/30 01:48:12;;;;;;;10.23;1.80;;;;;;;10.69;81.15;91298.69;2090335;28;20496;-82
2024/03/30 01:49:15;;;;;;;16.40;2.15;;;;;;;10.96;79.43;91298.41;2086293;28;20024;-81
2024/03/30 01:50:17;;;;;;;12.52;1.85;;;;;;;10.98;79.47;91296.03;2087622;28;20024;-81
2024/03/30 01:51:23;;;;;;;11.43;2.70;;;;;;;10.90;77.76;91297.59;2088114;28;20104;-80
2024/03/30 01:52:27;;;;;;;7.35;1.80;;;;;;;10.96;78.10;91300.34;2089083;28;20051;-82
2024/03/30 01:53:29;;;;;;;16.15;2.17;;;;;;;11.02;76.72;91298.50;2088299;28;20040;-80
2024/03/30 01:54:31;;;;;;;7.40;1.63;;;;;;;10.97;77.77;91293.78;2073830;28;20060;-80
2024/03/30 01:55:34;;;;;;;9.57;2.00;;;;;;;11.14;77.53;91292.13;2079589;28;20030;-81
2024/03/30 01:56:36;;;;;;;7.68;1.83;;;;;;;11.13;76.56;91287.25;2085980;28;20033;-80
2024/03/30 01:57:38;;;;;;;10.98;2.17;;;;;;;10.95;76.47;91286.25;2083126;28;20033;-81
2024/03/30 01:58:39;;;;;;;12.43;2.05;;;;;;;11.12;77.69;91280.41;2082762;28;20397;-81
2024/03/30 01:59:41;;;;;;;9.43;1.67;;;;;;;11.03;75.78;91287.34;2099238;28;20424;-81
2024/03/30 02:00:42;;;;;;;15.32;2.85;;;;;;;10.79;78.48;91289.38;2088958;28;21873;-80
2024/03/30 02:01:46;;;;;;;10.30;2.25;;;;;;;10.79;77.35;91289.38;2077380;28;20026;-81
2024/03/30 02:02:52;;;;;;;14.43;2.45;;;;;;;10.71;78.42;91301.63;2066833;28;20475;-80
2024/03/30 02:03:54;;;;;;;14.70;2.30;;;;;;;10.73;79.19;91299.97;2078172;28;20041;-81
2024/03/30 02:04:56;;;;;;;10.77;2.28;;;;;;;10.82;79.97;91297.22;2096389;28;20126;-81
2024/03/30 02:05:58;;;;;;;11.00;2.28;;;;;;;10.82;80.03;91291.88;2096519;28;20489;-81
2024/03/30 02:06:59;;;;;;;10.05;2.13;;;;;;;10.75;81.65;91281.53;2089277;28;20873;-81
2024/03/30 02:08:03;;;;;;;10.05;1.90;;;;;;;10.77;80.64;91281.09;2089360;28;20035;-81
2024/03/30 02:09:07;;;;;;;7.07;1.67;;;;;;;10.91;79.30;91290.31;2088740;28;20017;-80
2024/03/30 02:10:11;;;;;;;9.35;1.75;;;;;;;10.83;79.02;91285.31;2098401;28;20040;-80
2024/03/30 02:11:14;;;;;;;13.63;1.98;;;;;;;10.77;79.39;91279.16;2086478;28;20029;-82
2024/03/30 02:12:15;;;;;;;8.45;2.28;;;;;;;10.75;79.47;91281.53;2080130;28;20040;-81
2024/03/30 02:13:16;;;;;;;11.65;2.20;;;;;;;10.83;79.61;91279.97;2088686;28;20107;-79
2024/03/30 02:14:18;;;;;;;11.95;2.92;;;;;;;10.78;79.32;91285.25;2081414;28;20335;-79
2024/03/30 02:15:22;;;;;;;16.48;2.78;;;;;;;10.83;79.99;91287.25;2070727;28;20128;-82
2024/03/30 02:16:25;;;;;;;12.18;2.25;;;;;;;10.83;78.89;91271.22;2080502;28;20101;-81
2024/03/30 02:17:31;;;;;;;10.52;2.33;;;;;;;10.81;81.36;91276.31;2081562;28;20037;-80
2024/03/30 02:18:35;;;;;;;10.55;2.08;;;;;;;10.56;82.28;91278.31;2079407;28;20398;-81
2024/03/30 02:19:45;;;;;;;10.43;1.85;;;;;;;10.68;81.68;91267.84;2091018;28;20033;-80
2024/03/30 02:20:49;;;;;;;11.90;2.20;;;;;;;10.67;81.96;91277.78;2089240;28;20031;-81
2024/03/30 02:21:54;;;;;;;17.35;2.40;;;;;;;10.61;82.99;91279.59;2091002;28;20115;-81
2024/03/30 02:22:55;;;;;;;11.32;2.28;;;;;;;10.65;81.89;91279.44;2086696;28;20021;-82
2024/03/30 02:23:59;;;;;;;12.90;2.50;;;;;;;10.91;79.40;91279.59;2079754;28;20478;-81
2024/03/30 02:25:01;;;;;;;8.10;1.90;;;;;;;10.92;77.97;91273.78;2081113;28;20460;-80
2024/03/30 02:27:34;;;;;;;;;;;;;;;9.43;92.87;91279.28;2131681;27;20174;-80
2024/03/30 02:28:36;;;;;;;10.43;2.15;;;;;;;9.76;89.00;91271.97;2109424;28;20291;-80
2024/03/30 02:29:39;;;;;;;12.35;2.60;;;;;;;9.80;87.40;91269.16;2110936;27;20107;-82
2024/03/30 02:30:43;;;;;;;10.25;2.22;;;;;;;9.76;89.23;91261.31;2107386;28;20062;-81
2024/03/30 02:31:45;;;;;;;12.65;2.58;;;;;;;9.81;90.47;91270.63;2094810;28;20021;-82
2024/03/30 02:32:46;;;;;;;7.10;2.70;;;;;;;9.90;87.61;91267.88;2103711;28;20024;-81
2024/03/30 02:33:47;;;;;;;8.63;2.42;;;;;;;10.02;87.69;91271.50;2103708;28;21050;-83
2024/03/30 02:34:49;;;;;;;10.98;2.20;;;;;;;10.04;86.52;91269.09;2101936;28;20106;-82
2024/03/30 02:35:50;;;;;;;15.75;2.30;;;;;;;9.75;86.83;91270.50;2103192;28;20028;-82
2024/03/30 02:36:52;;;;;;;13.65;2.58;;;;;;;10.19;83.53;91272.56;2118234;28;20023;-82
2024/03/30 02:37:55;;;;;;;12.80;1.77;;;;;;;10.26;84.00;91256.19;2120641;28;20023;-81
2024/03/30 02:38:56;;;;;;;10.73;2.00;;;;;;;10.23;83.77;91259.75;2118222;28;20035;-81
2024/03/30 02:39:57;;;;;;;8.25;2.00;;;;;;;10.19;83.71;91256.53;2098500;28;20108;-82
2024/03/30 02:40:58;;;;;;;7.95;1.85;;;;;;;10.34;79.29;91257.31;2094355;28;20028;-82
2024/03/30 02:41:59;;;;;;;5.65;1.70;;;;;;;10.54;79.65;91250.59;2099225;28;20047;-81
2024/03/30 02:43:00;;;;;;;15.68;2.60;;;;;;;10.62;78.69;91243.69;2110304;28;20020;-82
2024/03/30 02:44:02;;;;;;;12.98;1.92;;;;;;;10.91;76.87;91244.88;2098498;28;20517;-81
2024/03/30 02:45:03;;;;;;;8.98;1.90;;;;;;;10.37;79.13;91244.97;2097547;28;20020;-82
2024/03/30 02:46:05;;;;;;;13.43;2.10;;;;;;;10.52;77.79;91244.97;2106822;28;20040;-82
2024/03/30 02:47:07;;;;;;;11.57;1.80;;;;;;;10.65;77.37;91239.34;2108124;28;20023;-83
2024/03/30 02:48:09;;;;;;;12.32;2.22;;;;;;;10.73;78.84;91241.19;2103802;28;20032;-81
2024/03/30 02:49:10;;;;;;;9.95;1.80;;;;;;;10.53;80.75;91233.09;2108533;28;20388;-80
2024/03/30 02:50:11;;;;;;;9.55;1.75;;;;;;;10.50;79.80;91234.75;2111373;28;20417;-82
2024/03/30 02:51:12;;;;;;;15.57;2.05;;;;;;;10.48;79.41;91250.50;2111852;28;20091;-81
2024/03/30 02:52:13;;;;;;;13.18;2.42;;;;;;;10.38;81.76;91251.06;2107964;28;20032;-82
2024/03/30 02:53:14;;;;;;;8.90;1.70;;;;;;;10.25;80.21;91244.03;2099507;28;20495;-81
2024/03/30 02:54:16;;;;;;;13.77;2.35;;;;;;;10.34;80.44;91241.28;2096607;28;20036;-81
2024/03/30 02:55:17;;;;;;;10.93;2.13;;;;;;;10.19;80.07;91245.84;2113050;28;20025;-81
2024/03/30 02:56:18;;;;;;;14.45;2.22;;;;;;;10.46;77.19;91252.16;2110836;28;20131;-81
2024/03/30 02:57:19;;;;;;;12.75;2.38;;;;;;;10.44;77.28;91243.88;2101281;28;20497;-81
2024/03/30 02:58:21;;;;;;;12.63;2.03;;;;;;;10.23;79.61;91248.34;2109425;28;20030;-80
2024/03/30 02:59:22;;;;;;;8.85;2.05;;;;;;;10.04;80.49;91243.16;2102144;28;20027;-81
2024/03/30 03:00:23;;;;;;;12.35;2.17;;;;;;;10.17;79.74;91236.81;2093784;28;20090;-80
2024/03/30 03:01:25;;;;;;;9.77;2.30;;;;;;;10.22;79.29;91236.19;2098894;28;20024;-81
2024/03/30 03:02:26;;;;;;;12.18;1.70;;;;;;;10.08;82.20;91235.69;2097607;28;20032;-82
2024/03/30 03:03:27;;;;;;;11.23;1.92;;;;;;;10.04;83.03;91229.06;2106029;28;20020;-81
2024/03/30 03:04:29;;;;;;;10.30;2.35;;;;;;;10.08;83.32;91232.28;2107653;28;20081;-82
2024/03/30 03:05:30;;;;;;;14.27;2.10;;;;;;;9.91;84.63;91228.59;2101772;28;20058;-81
2024/03/30 03:06:31;;;;;;;8.75;2.00;;;;;;;9.82;86.10;91229.41;2098347;28;20040;-81
2024/03/30 03:07:32;;;;;;;11.90;1.70;;;;;;;9.65;86.51;91221.06;2107764;28;20019;-81
2024/03/30 03:08:33;;;;;;;14.05;3.10;;;;;;;9.64;87.58;91224.19;2118114;28;20028;-80
2024/03/30 03:09:35;;;;;;;12.57;1.83;;;;;;;9.58;88.81;91226.75;2111957;28;20084;-81
2024/03/30 03:10:36;;;;;;;16.42;2.60;;;;;;;9.52;89.11;91226.63;2095873;28;20048;-81
2024/03/30 03:11:38;;;;;;;14.93;2.25;;;;;;;9.47;88.07;91227.25;2108052;28;20488;-80
2024/03/30 03:12:39;;;;;;;8.70;1.95;;;;;;;9.43;90.79;91220.63;2101634;28;20036;-83
2024/03/30 03:13:40;;;;;;;11.60;1.88;;;;;;;9.46;89.06;91228.47;2101572;28;20900;-80
2024/03/30 03:14:42;;;;;;;10.98;1.70;;;;;;;9.53;91.55;91230.78;2108941;28;20019;-81
2024/03/30 03:15:43;;;;;;;14.07;2.20;;;;;;;9.36;90.05;91221.72;2100976;28;20021;-82
2024/03/30 03:16:44;;;;;;;12.48;2.20;;;;;;;9.34;94.09;91218.75;2106041;28;20385;-82
2024/03/30 03:17:45;;;;;;;10.70;2.25;;;;;;;9.16;94.03;91218.88;2101723;28;20043;-81
2024/03/30 03:18:47;;;;;;;13.23;2.90;;;;;;;9.12;95.47;91216.34;2096503;28;20038;-80
2024/03/30 03:19:48;;;;;;;12.95;2.15;;;;;;;9.02;99.03;91229.00;2116293;28;20217;-80
2024/03/30 03:20:49;;;;;;;17.17;1.95;;;;;;;8.86;100.00;91216.03;2099845;28;20032;-82
2024/03/30 03:21:50;;;;;;;9.95;1.88;;;;;;;8.94;99.01;91214.53;2100730;28;20371;-82
2024/03/30 03:22:51;;;;;;;8.82;1.60;;;;;;;8.86;98.43;91216.03;2100351;28;20028;-81
2024/03/30 03:23:52;;;;;;;10.30;2.08;;;;;;;8.96;97.17;91224.75;2103578;28;20027;-82
2024/03/30 03:24:53;;;;;;;12.00;1.90;;;;;;;8.90;96.56;91229.94;2107572;28;20027;-81
2024/03/30 03:25:54;;;;;;;9.40;1.67;;;;;;;8.93;97.31;91223.72;2104913;28;20058;-81
2024/03/30 03:26:55;;;;;;;7.65;1.55;;;;;;;9.03;95.99;91219.81;2116887;28;20124;-80
2024/03/30 03:27:57;;;;;;;17.60;2.15;;;;;;;8.95;97.31;91218.66;2107519;28;20050;-81
2024/03/30 03:28:58;;;;;;;12.48;2.08;;;;;;;9.03;97.08;91221.75;2110859;28;20494;-80
2024/03/30 03:29:59;;;;;;;10.45;1.92;;;;;;;8.91;99.07;91218.13;2115880;28;20078;-82
2024/03/30 03:31:00;;;;;;;10.15;1.77;;;;;;;8.84;100.00;91215.75;2101258;28;20029;-81
2024/03/30 03:32:01;;;;;;;11.07;1.52;;;;;;;8.81;100.00;91224.66;2093982;28;20441;-80
2024/03/30 03:33:04;;;;;;;7.65;1.73;;;;;;;8.70;100.00;91219.81;2098525;28;20032;-81
2024/03/30 03:34:05;;;;;;;13.27;2.33;;;;;;;8.45;100.00;91220.19;2109570;28;20019;-80
2024/03/30 03:35:06;;;;;;;9.10;1.98;;;;;;;8.51;100.00;91226.38;2114328;28;20038;-82
2024/03/30 03:36:07;;;;;;;10.05;1.95;;;;;;;8.67;100.00;91226.03;2106890;28;20372;-82
2024/03/30 03:37:09;;;;;;;10.63;1.75;;;;;;;8.50;100.00;91225.66;2105035;28;20020;-80
2024/03/30 03:38:10;;;;;;;12.02;2.58;;;;;;;8.56;100.00;91231.13;2109488;28;20020;-81
2024/03/30 03:39:11;;;;;;;8.43;1.67;;;;;;;8.39;100.00;91237.97;2112214;28;20027;-82
2024/03/30 03:40:12;;;;;;;7.03;2.03;;;;;;;8.45;100.00;91228.91;2101293;28;20015;-81
2024/03/30 03:41:13;;;;;;;12.20;2.72;;;;;;;8.39;100.00;91229.97;2105575;28;20063;-81
2024/03/30 03:42:15;;;;;;;10.88;1.90;;;;;;;8.30;100.00;91228.78;2093569;28;20036;-81
2024/03/30 03:43:16;;;;;;;10.27;1.70;;;;;;;8.26;100.00;91232.78;2088811;28;20027;-82
2024/03/30 03:44:16;;;;;;;6.40;1.60;;;;;;;8.19;100.00;91235.75;2098502;28;20021;-82
2024/03/30 03:45:17;;;;;;;8.10;2.03;;;;;;;8.12;100.00;91228.06;2105771;28;20031;-80
2024/03/30 03:46:18;;;;;;;5.38;1.52;;;;;;;8.09;100.00;91227.03;2104540;28;20038;-80
2024/03/30 03:47:19;;;;;;;9.25;1.70;;;;;;;8.03;100.00;91221.59;2102939;28;20487;-81
2024/03/30 03:48:20;;;;;;;9.80;2.25;;;;;;;8.05;100.00;91219.22;2102284;28;20035;-81
2024/03/30 03:49:21;;;;;;;9.07;1.65;;;;;;;8.07;100.00;91226.75;2085090;28;20474;-80
2024/03/30 03:50:23;;;;;;;15.70;2.85;;;;;;;8.11;100.00;91221.28;2081145;28;20072;-82
2024/03/30 03:51:23;;;;;;;8.38;2.00;;;;;;;8.02;100.00;91233.41;2088743;28;20025;-82
2024/03/30 03:52:24;;;;;;;10.25;1.77;;;;;;;7.95;100.00;91230.31;2104702;28;20024;-82
2024/03/30 03:53:25;;;;;;;8.40;1.83;;;;;;;7.94;100.00;91226.16;2096284;28;20028;-81
2024/03/30 03:54:26;;;;;;;12.45;1.77;;;;;;;7.94;100.00;91223.50;2087726;28;20024;-82
2024/03/30 03:55:27;;;;;;;8.82;1.48;;;;;;;8.02;100.00;91220.09;2090424;28;20056;-81
2024/03/30 03:56:28;;;;;;;14.82;1.60;;;;;;;7.97;100.00;91222.63;2095507;28;20086;-82
2024/03/30 03:57:29;;;;;;;8.13;1.52;;;;;;;7.96;100.00;91239.78;2100425;28;20059;-81
2024/03/30 03:58:30;;;;;;;11.25;1.95;;;;;;;8.13;100.00;91235.63;2093942;28;20481;-80
2024/03/30 03:59:31;;;;;;;10.77;1.80;;;;;;;8.14;100.00;91234.44;2090066;28;20029;-81
2024/03/30 04:00:32;;;;;;;12.27;2.10;;;;;;;8.04;100.00;91236.38;2100224;28;20039;-80
2024/03/30 04:01:33;;;;;;;12.80;2.08;;;;;;;8.08;100.00;91244.94;2094405;28;20120;-81
2024/03/30 04:02:39;;;;;;;10.43;2.70;;;;;;;8.03;100.00;91240.22;2089665;28;20025;-80
2024/03/30 04:03:42;;;;;;;7.13;1.50;;;;;;;7.92;100.00;91241.84;2096428;28;20025;-81
2024/03/30 04:04:43;;;;;;;7.43;1.20;;;;;;;7.75;100.00;91236.81;2090456;28;20490;-83
2024/03/30 04:05:44;;;;;;;8.98;1.73;;;;;;;7.89;100.00;91242.72;2105902;28;20103;-80
2024/03/30 04:06:46;;;;;;;10.57;1.63;;;;;;;7.91;100.00;91235.78;2109542;28;20066;-80
2024/03/30 04:07:48;;;;;;;10.18;2.30;;;;;;;7.71;100.00;91240.81;2094540;28;20027;-80
2024/03/30 04:08:49;;;;;;;6.78;1.63;;;;;;;7.66;100.00;91246.72;2083529;28;20086;-81
2024/03/30 04:09:51;;;;;;;13.15;1.60;;;;;;;7.42;100.00;91249.94;2095706;28;20058;-80
2024/03/30 04:11:00;;;;;;;8.60;1.50;;;;;;;7.46;100.00;91249.78;2094970;28;20053;-81
2024/03/30 04:12:01;;;;;;;9.40;1.30;;;;;;;7.50;100.00;91245.81;2099393;28;20130;-81
2024/03/30 04:13:02;;;;;;;10.50;1.90;;;;;;;7.55;100.00;91250.56;2096106;28;20025;-81
2024/03/30 04:14:03;;;;;;;11.38;1.45;;;;;;;7.43;100.00;91237.41;2101875;28;20034;-81
2024/03/30 04:15:04;;;;;;;8.45;1.42;;;;;;;7.36;100.00;91249.03;2109732;28;20026;-80
2024/03/30 04:16:06;;;;;;;9.23;1.65;;;;;;;7.45;100.00;91245.66;2103804;28;20027;-81
2024/03/30 04:17:07;;;;;;;8.23;1.30;;;;;;;7.39;100.00;91248.16;2105524;28;20012;-81
2024/03/30 04:18:08;;;;;;;7.60;1.13;;;;;;;7.38;100.00;91244.03;2094331;28;20152;-82
2024/03/30 04:19:09;;;;;;;6.90;1.80;;;;;;;7.34;100.00;91251.41;2084069;28;20025;-80
2024/03/30 04:20:10;;;;;;;13.05;1.77;;;;;;;7.29;100.00;91254.66;2102264;28;20511;-81
2024/03/30 04:21:12;;;;;;;7.20;1.33;;;;;;;7.26;100.00;91252.88;2100805;28;21224;-81
2024/03/30 04:22:13;;;;;;;8.38;2.00;;;;;;;7.24;100.00;91247.25;2092209;28;20462;-81
2024/03/30 04:23:13;;;;;;;8.00;1.67;;;;;;;7.21;100.00;91248.13;2102129;28;20199;-81
2024/03/30 04:24:14;;;;;;;12.23;1.77;;;;;;;7.23;100.00;91261.72;2110696;28;20035;-82
2024/03/30 04:25:15;;;;;;;5.28;1.33;;;;;;;7.29;100.00;91249.34;2112616;28;20023;-81
2024/03/30 04:26:18;;;;;;;10.43;2.22;;;;;;;7.29;100.00;91247.41;2092180;28;20537;-81
2024/03/30 04:27:19;;;;;;;12.07;1.65;;;;;;;7.39;100.00;91250.09;2083980;28;20119;-82
2024/03/30 04:28:20;;;;;;;8.63;2.30;;;;;;;7.20;100.00;91249.28;2104118;28;20488;-81
2024/03/30 04:29:21;;;;;;;6.43;1.33;;;;;;;7.36;100.00;91248.31;2101952;28;20044;-83
2024/03/30 04:30:22;;;;;;;10.77;1.58;;;;;;;7.27;100.00;91241.78;2101619;28;20028;-81
2024/03/30 04:31:23;;;;;;;8.95;1.77;;;;;;;7.22;100.00;91238.97;2101629;28;20039;-81
2024/03/30 04:32:24;;;;;;;9.70;1.75;;;;;;;7.24;100.00;91242.69;2095829;28;20021;-80
2024/03/30 04:33:29;;;;;;;13.80;1.60;;;;;;;7.23;100.00;91229.81;2103349;28;20016;-82
2024/03/30 04:34:30;;;;;;;7.32;1.85;;;;;;;7.43;100.00;91240.06;2089815;28;20017;-80
2024/03/30 04:35:31;;;;;;;7.85;1.67;;;;;;;7.51;100.00;91243.91;2090379;28;20024;-81
2024/03/30 04:36:32;;;;;;;8.85;1.40;;;;;;;7.45;100.00;91243.72;2102204;28;20380;-82
2024/03/30 04:37:33;;;;;;;8.65;1.60;;;;;;;7.53;100.00;91244.94;2112668;28;20011;-81
2024/03/30 04:38:34;;;;;;;10.65;1.45;;;;;;;7.61;100.00;91252.63;2105574;28;20028;-80
2024/03/30 04:39:35;;;;;;;7.75;1.50;;;;;;;7.56;100.00;91251.28;2105680;28;20526;-81
2024/03/30 04:40:36;;;;;;;9.93;1.45;;;;;;;7.51;100.00;91257.19;2114353;28;20073;-80
2024/03/30 04:41:37;;;;;;;10.52;2.22;;;;;;;7.68;100.00;91260.28;2104100;28;20036;-80
2024/03/30 04:42:38;;;;;;;10.35;1.73;;;;;;;7.57;100.00;91269.44;2096527;28;20020;-81
2024/03/30 04:43:39;;;;;;;5.90;1.52;;;;;;;7.56;100.00;91265.31;2100051;28;20020;-82
2024/03/30 04:44:40;;;;;;;7.43;1.25;;;;;;;7.55;100.00;91263.84;2098573;28;20071;-81
2024/03/30 04:45:41;;;;;;;5.72;1.25;;;;;;;7.61;100.00;91273.91;2093013;28;20016;-81
2024/03/30 04:46:42;;;;;;;6.40;1.35;;;;;;;7.73;100.00;91271.09;2096297;28;20023;-82
2024/03/30 04:47:43;;;;;;;7.53;2.17;;;;;;;7.65;100.00;91271.84;2088903;28;20087;-82
2024/03/30 04:48:47;;;;;;;6.47;1.20;;;;;;;7.76;100.00;91272.84;2086442;28;20036;-80
2024/03/30 04:49:48;;;;;;;12.05;2.30;;;;;;;7.60;100.00;91264.44;2089379;28;20102;-82